createdAt,value
2019-05-05T00:00:15.997Z,6.75
2019-05-05T00:02:55.233Z,6.83
2019-05-05T00:05:25.393Z,5.97
2019-05-05T00:07:54.177Z,7.30
2019-05-05T00:10:40.500Z,7.00
2019-05-05T00:13:14.930Z,6.78
2019-05-05T00:15:55.083Z,7.12
2019-05-05T00:18:25.404Z,6.35
2019-05-05T00:20:55.215Z,7.72
2019-05-05T00:23:25.099Z,7.37
2019-05-05T00:25:55.259Z,6.25
2019-05-05T00:28:24.873Z,7.17
2019-05-05T00:30:55.379Z,6.90
2019-05-05T00:33:24.925Z,6.47
2019-05-05T00:35:54.486Z,6.40
2019-05-05T00:38:24.927Z,7.60
2019-05-05T00:40:54.984Z,7.20
2019-05-05T00:43:25.240Z,7.00
2019-05-05T00:45:55.706Z,7.03
2019-05-05T00:48:35.110Z,6.95
2019-05-05T00:51:04.668Z,7.12
2019-05-05T00:53:34.279Z,6.97
2019-05-05T00:56:04.991Z,6.85
2019-05-05T00:58:35.349Z,6.37
2019-05-05T01:01:22.188Z,6.80
2019-05-05T01:03:50.691Z,7.22
2019-05-05T01:06:34.522Z,7.28
2019-05-05T01:09:04.324Z,7.25
2019-05-05T01:11:32.730Z,7.75
2019-05-05T01:14:01.132Z,7.50
2019-05-05T01:16:29.552Z,6.40
2019-05-05T01:18:57.996Z,8.50
2019-05-05T01:21:26.380Z,7.72
2019-05-05T01:23:54.968Z,8.45
2019-05-05T01:26:24.825Z,7.95
2019-05-05T01:28:53.529Z,6.67
2019-05-05T01:31:22.310Z,7.42
2019-05-05T01:33:54.112Z,7.90
2019-05-05T01:36:24.182Z,7.53
2019-05-05T01:38:55.219Z,7.55
2019-05-05T01:41:34.879Z,7.78
2019-05-05T01:44:04.862Z,7.95
2019-05-05T01:46:35.333Z,7.35
2019-05-05T01:49:05.383Z,8.15
2019-05-05T01:51:35.474Z,7.35
2019-05-05T01:54:05.207Z,8.28
2019-05-05T01:56:35.183Z,7.00
2019-05-05T01:59:05.207Z,8.15
2019-05-05T02:01:35.210Z,7.50
2019-05-05T02:04:05.500Z,8.05
2019-05-05T02:06:34.993Z,7.97
2019-05-05T02:09:06.043Z,7.90
2019-05-05T02:11:35.339Z,8.93
2019-05-05T02:14:05.085Z,7.87
2019-05-05T02:16:34.700Z,7.62
2019-05-05T02:19:05.040Z,8.88
2019-05-05T02:21:35.327Z,7.47
2019-05-05T02:24:05.194Z,7.72
2019-05-05T02:26:34.979Z,8.60
2019-05-05T02:29:24.761Z,8.55
2019-05-05T02:32:11.273Z,8.13
2019-05-05T02:34:41.422Z,8.88
2019-05-05T02:37:09.833Z,8.05
2019-05-05T02:39:44.840Z,8.28
2019-05-05T02:42:08.946Z,8.28
2019-05-05T02:44:37.893Z,8.48
2019-05-05T02:47:15.509Z,8.68
2019-05-05T02:49:45.386Z,8.60
2019-05-05T02:52:15.254Z,8.55
2019-05-05T02:54:44.536Z,8.98
2019-05-05T02:57:14.392Z,7.85
2019-05-05T02:59:44.876Z,8.10
2019-05-05T03:02:15.116Z,7.87
2019-05-05T03:04:44.588Z,8.73
2019-05-05T03:07:15.848Z,8.18
2019-05-05T03:09:45.508Z,7.65
2019-05-05T03:12:15.659Z,8.40
2019-05-05T03:14:45.236Z,8.75
2019-05-05T03:17:14.486Z,7.45
2019-05-05T03:19:44.487Z,8.30
2019-05-05T03:22:14.292Z,8.10
2019-05-05T03:24:44.681Z,7.87
2019-05-05T03:27:14.349Z,7.97
2019-05-05T03:29:44.179Z,8.53
2019-05-05T03:32:16.048Z,8.38
2019-05-05T03:34:44.500Z,7.50
2019-05-05T03:37:14.611Z,8.05
2019-05-05T03:39:44.820Z,8.85
2019-05-05T03:42:17.737Z,8.58
2019-05-05T03:44:51.084Z,6.22
2019-05-05T03:47:19.764Z,8.15
2019-05-05T03:49:48.191Z,7.25
2019-05-05T03:52:16.590Z,8.13
2019-05-05T03:54:45.497Z,8.30
2019-05-05T03:57:14.582Z,7.15
2019-05-05T03:59:44.435Z,8.35
2019-05-05T04:02:23.860Z,7.53
2019-05-05T04:04:55.011Z,7.75
2019-05-05T04:07:24.304Z,7.53
2019-05-05T04:09:54.264Z,7.40
2019-05-05T04:12:24.172Z,8.08
2019-05-05T04:14:54.621Z,8.05
2019-05-05T04:17:30.602Z,7.87
2019-05-05T04:20:03.818Z,7.80
2019-05-05T04:22:34.367Z,7.70
2019-05-05T04:25:04.605Z,8.98
2019-05-05T04:27:34.277Z,9.05
2019-05-05T04:30:03.925Z,8.05
2019-05-05T04:32:32.438Z,8.38
2019-05-05T04:35:00.853Z,8.05
2019-05-05T04:37:29.257Z,8.80
2019-05-05T04:39:57.669Z,9.30
2019-05-05T04:42:26.077Z,9.15
2019-05-05T04:44:54.500Z,9.93
2019-05-05T04:47:25.075Z,10.38
2019-05-05T04:50:04.410Z,10.20
2019-05-05T04:52:34.295Z,9.18
2019-05-05T04:55:03.980Z,10.68
2019-05-05T04:57:32.608Z,9.48
2019-05-05T05:00:01.011Z,9.18
2019-05-05T05:02:31.069Z,9.05
2019-05-05T05:05:14.498Z,10.23
2019-05-05T05:07:43.906Z,11.73
2019-05-05T05:10:13.864Z,10.40
2019-05-05T05:12:43.565Z,9.83
2019-05-05T05:15:14.597Z,11.05
2019-05-05T05:17:44.543Z,10.53
2019-05-05T05:20:14.164Z,11.03
2019-05-05T05:22:44.005Z,11.53
2019-05-05T05:25:13.598Z,10.90
2019-05-05T05:27:44.146Z,11.85
2019-05-05T05:30:13.705Z,11.50
2019-05-05T05:32:44.376Z,12.25
2019-05-05T05:35:14.117Z,11.68
2019-05-05T05:37:44.578Z,11.15
2019-05-05T05:40:20.537Z,11.43
2019-05-05T05:42:48.954Z,11.73
2019-05-05T05:45:28.084Z,11.63
2019-05-05T05:48:00.836Z,11.35
2019-05-05T05:50:30.892Z,10.88
2019-05-05T05:52:59.383Z,11.70
2019-05-05T05:55:27.814Z,12.25
2019-05-05T05:57:56.216Z,11.45
2019-05-05T06:00:24.627Z,11.73
2019-05-05T06:02:54.583Z,11.73
2019-05-05T06:05:23.907Z,12.80
2019-05-05T06:07:54.463Z,12.45
2019-05-05T06:10:27.042Z,13.22
2019-05-05T06:12:54.601Z,13.08
2019-05-05T06:15:24.444Z,11.70
2019-05-05T06:17:54.015Z,11.75
2019-05-05T06:20:23.893Z,11.15
2019-05-05T06:22:53.528Z,11.83
2019-05-05T06:25:26.276Z,11.08
2019-05-05T06:27:54.041Z,12.47
2019-05-05T06:30:24.370Z,11.43
2019-05-05T06:32:54.447Z,11.03
2019-05-05T06:35:24.445Z,12.60
2019-05-05T06:37:54.260Z,11.50
2019-05-05T06:40:34.081Z,9.93
2019-05-05T06:43:06.268Z,10.72
2019-05-05T06:45:43.867Z,11.20
2019-05-05T06:48:13.561Z,10.08
2019-05-05T06:50:43.813Z,10.90
2019-05-05T06:53:13.529Z,10.10
2019-05-05T06:55:44.285Z,9.70
2019-05-05T06:58:13.662Z,10.85
2019-05-05T07:00:44.143Z,9.35
2019-05-05T07:03:13.933Z,9.55
2019-05-05T07:05:43.717Z,10.65
2019-05-05T07:08:13.841Z,9.30
2019-05-05T07:10:44.385Z,9.03
2019-05-05T07:13:14.002Z,9.03
2019-05-05T07:15:43.801Z,9.40
2019-05-05T07:18:14.197Z,9.13
2019-05-05T07:20:44.059Z,9.25
2019-05-05T07:23:14.515Z,8.43
2019-05-05T07:25:45.677Z,8.63
2019-05-05T07:28:14.691Z,8.73
2019-05-05T07:30:44.278Z,8.98
2019-05-05T07:33:14.908Z,10.03
2019-05-05T07:35:55.360Z,16.97
2019-05-05T07:38:15.079Z,13.15
2019-05-05T07:40:43.960Z,24.05
2019-05-05T07:43:14.498Z,14.75
2019-05-05T07:45:44.611Z,9.05
2019-05-05T07:48:13.864Z,8.43
2019-05-05T07:50:45.023Z,8.65
2019-05-05T07:53:17.587Z,10.13
2019-05-05T07:55:43.666Z,10.58
2019-05-05T07:58:13.921Z,8.70
2019-05-05T08:00:43.662Z,9.65
2019-05-05T08:03:14.166Z,8.60
2019-05-05T08:05:44.230Z,9.20
2019-05-05T08:08:13.874Z,9.00
2019-05-05T08:10:43.709Z,8.95
2019-05-05T08:13:14.065Z,8.50
2019-05-05T08:15:56.312Z,8.23
2019-05-05T08:18:17.806Z,8.00
2019-05-05T08:20:47.864Z,7.97
2019-05-05T08:23:29.111Z,7.62
2019-05-05T08:25:58.644Z,8.23
2019-05-05T08:28:28.699Z,8.65
2019-05-05T08:30:58.745Z,7.55
2019-05-05T08:33:27.173Z,7.17
2019-05-05T08:35:55.638Z,6.90
2019-05-05T08:38:24.309Z,8.25
2019-05-05T08:40:54.340Z,8.33
2019-05-05T08:43:24.135Z,8.30
2019-05-05T08:45:52.715Z,7.78
2019-05-05T08:48:21.121Z,7.92
2019-05-05T08:50:49.538Z,7.35
2019-05-05T08:53:17.945Z,7.17
2019-05-05T08:55:46.365Z,8.15
2019-05-05T08:58:15.019Z,8.13
2019-05-05T09:00:44.433Z,7.80
2019-05-05T09:03:13.935Z,7.03
2019-05-05T09:05:43.731Z,7.85
2019-05-05T09:08:13.793Z,7.67
2019-05-05T09:10:44.596Z,7.17
2019-05-05T09:13:14.283Z,7.72
2019-05-05T09:15:44.332Z,7.85
2019-05-05T09:18:14.114Z,7.62
2019-05-05T09:20:44.524Z,6.85
2019-05-05T09:23:14.757Z,8.00
2019-05-05T09:25:47.556Z,6.78
2019-05-05T09:28:23.867Z,6.62
2019-05-05T09:30:53.644Z,6.40
2019-05-05T09:33:24.603Z,6.67
2019-05-05T09:35:54.159Z,6.37
2019-05-05T09:38:23.871Z,6.40
2019-05-05T09:40:54.256Z,5.75
2019-05-05T09:43:24.053Z,6.75
2019-05-05T09:45:54.556Z,7.47
2019-05-05T09:48:24.297Z,6.10
2019-05-05T09:50:54.102Z,7.47
2019-05-05T09:53:23.784Z,7.42
2019-05-05T09:55:54.612Z,7.67
2019-05-05T09:58:24.209Z,6.95
2019-05-05T10:00:54.557Z,6.70
2019-05-05T10:03:22.979Z,7.05
2019-05-05T10:05:51.394Z,6.58
2019-05-05T10:08:19.796Z,6.10
2019-05-05T10:10:48.196Z,7.15
2019-05-05T10:13:16.630Z,6.40
2019-05-05T10:15:45.112Z,7.83
2019-05-05T10:18:14.227Z,6.90
2019-05-05T10:20:42.797Z,6.33
2019-05-05T10:23:11.216Z,6.45
2019-05-05T10:25:47.053Z,7.28
2019-05-05T10:28:15.470Z,7.03
2019-05-05T10:30:43.869Z,6.58
2019-05-05T10:33:14.293Z,6.72
2019-05-05T10:35:43.756Z,5.22
2019-05-05T10:38:14.114Z,6.37
2019-05-05T10:40:44.438Z,6.17
2019-05-05T10:43:14.668Z,6.50
2019-05-05T10:45:44.085Z,6.30
2019-05-05T10:48:14.417Z,6.37
2019-05-05T10:50:44.453Z,6.25
2019-05-05T10:53:13.617Z,5.55
2019-05-05T10:55:42.292Z,6.12
2019-05-05T10:58:10.702Z,6.78
2019-05-05T11:00:44.879Z,6.58
2019-05-05T11:03:14.865Z,5.60
2019-05-05T11:05:45.147Z,5.90
2019-05-05T11:08:14.082Z,5.67
2019-05-05T11:10:44.923Z,5.22
2019-05-05T11:13:13.169Z,5.15
2019-05-05T11:15:41.575Z,5.47
2019-05-05T11:18:09.982Z,6.03
2019-05-05T11:20:38.388Z,6.30
2019-05-05T11:23:06.862Z,7.25
2019-05-05T11:25:35.315Z,7.42
2019-05-05T11:28:05.353Z,8.38
2019-05-05T11:30:36.390Z,7.70
2019-05-05T11:33:14.258Z,7.50
2019-05-05T11:35:47.224Z,6.95
2019-05-05T11:38:15.627Z,8.15
2019-05-05T11:40:44.103Z,7.62
2019-05-05T11:43:14.251Z,7.80
2019-05-05T11:45:46.117Z,7.85
2019-05-05T11:48:14.909Z,7.75
2019-05-05T11:50:43.741Z,7.50
2019-05-05T11:53:14.372Z,6.53
2019-05-05T11:55:44.255Z,5.78
2019-05-05T11:58:14.305Z,5.33
2019-05-05T12:00:43.850Z,5.12
2019-05-05T12:03:14.361Z,4.78
2019-05-05T12:05:44.428Z,5.40
2019-05-05T12:08:15.905Z,5.05
2019-05-05T12:10:45.971Z,4.45
2019-05-05T12:13:14.873Z,4.47
2019-05-05T12:15:45.004Z,4.30
2019-05-05T12:18:14.361Z,4.22
2019-05-05T12:20:44.050Z,4.00
2019-05-05T12:23:12.873Z,4.03
2019-05-05T12:25:55.005Z,6.33
2019-05-05T12:28:26.051Z,5.03
2019-05-05T12:30:56.437Z,4.92
2019-05-05T12:33:24.869Z,4.40
2019-05-05T12:35:53.961Z,4.62
2019-05-05T12:38:24.125Z,5.12
2019-05-05T12:40:53.520Z,5.65
2019-05-05T12:43:24.540Z,5.80
2019-05-05T12:46:04.518Z,6.25
2019-05-05T12:48:43.910Z,8.70
2019-05-05T12:51:14.611Z,5.80
2019-05-05T12:53:42.631Z,4.87
2019-05-05T12:56:11.020Z,4.50
2019-05-05T12:58:39.444Z,4.70
2019-05-05T13:01:09.491Z,4.80
2019-05-05T13:03:38.089Z,4.78
2019-05-05T13:06:06.555Z,7.00
2019-05-05T13:08:35.326Z,6.62
2019-05-05T13:11:04.118Z,4.50
2019-05-05T13:13:34.556Z,6.55
2019-05-05T13:16:04.236Z,6.37
2019-05-05T13:18:33.911Z,7.75
2019-05-05T13:21:18.974Z,5.15
2019-05-05T13:23:49.025Z,4.37
2019-05-05T13:26:23.677Z,4.80
2019-05-05T13:28:54.158Z,4.50
2019-05-05T13:31:22.359Z,4.28
2019-05-05T13:33:50.781Z,4.25
2019-05-05T13:36:19.217Z,4.33
2019-05-05T13:38:47.658Z,4.58
2019-05-05T13:41:16.073Z,6.17
2019-05-05T13:43:44.586Z,4.30
2019-05-05T13:46:14.625Z,4.33
2019-05-05T13:48:44.424Z,5.35
2019-05-05T13:51:14.789Z,6.15
2019-05-05T13:53:44.719Z,5.40
2019-05-05T13:56:15.401Z,5.97
2019-05-05T13:58:43.852Z,4.97
2019-05-05T14:01:14.310Z,5.53
2019-05-05T14:03:44.583Z,5.85
2019-05-05T14:06:13.821Z,5.05
2019-05-05T14:08:44.623Z,6.10
2019-05-05T14:11:14.188Z,5.08
2019-05-05T14:13:45.494Z,4.85
2019-05-05T14:16:14.369Z,5.35
2019-05-05T14:18:42.733Z,5.35
2019-05-05T14:21:11.131Z,5.10
2019-05-05T14:23:57.696Z,5.15
2019-05-05T14:26:28.436Z,4.80
2019-05-05T14:28:56.265Z,5.22
2019-05-05T14:31:29.038Z,5.35
2019-05-05T14:33:59.082Z,5.03
2019-05-05T14:36:38.443Z,5.67
2019-05-05T14:39:10.053Z,4.87
2019-05-05T14:41:38.477Z,4.33
2019-05-05T14:44:06.885Z,3.77
2019-05-05T14:46:35.304Z,4.12
2019-05-05T14:49:05.671Z,4.10
2019-05-05T14:51:34.306Z,4.53
2019-05-05T14:54:04.544Z,4.20
2019-05-05T14:56:36.569Z,4.20
2019-05-05T14:59:03.812Z,4.28
2019-05-05T15:01:34.339Z,4.58
2019-05-05T15:04:04.324Z,4.45
2019-05-05T15:06:40.118Z,4.35
2019-05-05T15:09:13.928Z,4.30
2019-05-05T15:11:53.842Z,4.05
2019-05-05T15:14:24.347Z,4.10
2019-05-05T15:16:54.308Z,3.85
2019-05-05T15:19:23.802Z,4.45
2019-05-05T15:21:53.633Z,4.10
2019-05-05T15:24:24.487Z,4.10
2019-05-05T15:26:54.875Z,3.70
2019-05-05T15:29:24.984Z,4.20
2019-05-05T15:31:53.889Z,3.95
2019-05-05T15:34:24.046Z,4.08
2019-05-05T15:36:54.594Z,4.58
2019-05-05T15:39:24.571Z,3.90
2019-05-05T15:41:54.239Z,4.25
2019-05-05T15:44:24.143Z,4.15
2019-05-05T15:46:57.309Z,4.28
2019-05-05T15:49:23.391Z,3.98
2019-05-05T15:51:53.807Z,4.37
2019-05-05T15:54:23.658Z,4.28
2019-05-05T15:57:02.959Z,4.10
2019-05-05T15:59:23.913Z,4.10
2019-05-05T16:01:54.727Z,3.98
2019-05-05T16:04:23.637Z,3.92
2019-05-05T16:06:54.080Z,4.17
2019-05-05T16:09:22.603Z,3.70
2019-05-05T16:11:51.060Z,4.35
2019-05-05T16:14:19.911Z,4.17
2019-05-05T16:17:04.524Z,4.50
2019-05-05T16:19:34.035Z,3.70
2019-05-05T16:22:04.101Z,3.58
2019-05-05T16:24:36.465Z,4.33
2019-05-05T16:27:18.368Z,4.22
2019-05-05T16:29:34.774Z,3.75
2019-05-05T16:32:05.446Z,3.85
2019-05-05T16:34:33.736Z,3.70
2019-05-05T16:37:03.870Z,5.37
2019-05-05T16:39:33.569Z,4.60
2019-05-05T16:42:02.169Z,4.08
2019-05-05T16:44:30.605Z,4.05
2019-05-05T16:46:59.014Z,3.55
2019-05-05T16:49:27.428Z,3.80
2019-05-05T16:51:57.488Z,4.47
2019-05-05T16:54:27.579Z,5.70
2019-05-05T16:56:56.006Z,3.37
2019-05-05T16:59:24.420Z,5.50
2019-05-05T17:01:54.112Z,5.67
2019-05-05T17:04:24.371Z,9.15
2019-05-05T17:06:54.706Z,3.00
2019-05-05T17:09:24.007Z,3.42
2019-05-05T17:12:10.908Z,3.50
2019-05-05T17:14:41.819Z,2.77
2019-05-05T17:17:28.192Z,6.28
2019-05-05T17:19:58.242Z,3.10
2019-05-05T17:22:28.315Z,5.30
2019-05-05T17:24:56.960Z,2.80
2019-05-05T17:27:25.416Z,4.05
2019-05-05T17:29:53.980Z,6.53
2019-05-05T17:32:24.756Z,6.95
2019-05-05T17:34:54.158Z,5.33
2019-05-05T17:37:23.919Z,2.95
2019-05-05T17:39:54.592Z,3.30
2019-05-05T17:42:24.941Z,4.03
2019-05-05T17:45:00.716Z,3.95
2019-05-05T17:47:30.757Z,4.45
2019-05-05T17:50:04.143Z,4.28
2019-05-05T17:52:47.001Z,3.92
2019-05-05T17:55:35.163Z,3.25
2019-05-05T17:58:11.045Z,3.17
2019-05-05T18:00:43.480Z,2.92
2019-05-05T18:03:12.089Z,3.12
2019-05-05T18:06:03.295Z,2.92
2019-05-05T18:08:35.709Z,3.10
2019-05-05T18:11:27.401Z,3.02
2019-05-05T18:14:07.217Z,4.15
2019-05-05T18:16:35.942Z,3.35
2019-05-05T18:19:04.683Z,3.15
2019-05-05T18:21:34.771Z,2.80
2019-05-05T18:24:03.576Z,2.95
2019-05-05T18:26:34.068Z,3.77
2019-05-05T18:29:03.801Z,3.12
2019-05-05T18:31:34.264Z,2.87
2019-05-05T18:34:04.023Z,3.08
2019-05-05T18:36:36.571Z,3.12
2019-05-05T18:39:07.713Z,3.40
2019-05-05T18:41:55.560Z,2.98
2019-05-05T18:44:33.485Z,2.75
2019-05-05T18:47:14.826Z,3.20
2019-05-05T18:49:43.203Z,3.40
2019-05-05T18:52:13.858Z,3.10
2019-05-05T18:54:44.078Z,2.72
2019-05-05T18:57:13.823Z,3.20
2019-05-05T18:59:44.787Z,3.20
2019-05-05T19:02:34.677Z,2.92
2019-05-05T19:05:23.693Z,3.08
2019-05-05T19:08:14.293Z,2.98
2019-05-05T19:10:44.518Z,3.08
2019-05-05T19:13:14.374Z,3.40
2019-05-05T19:15:44.290Z,3.33
2019-05-05T19:18:14.190Z,4.28
2019-05-05T19:20:54.507Z,4.05
2019-05-05T19:23:24.410Z,3.87
2019-05-05T19:25:56.021Z,3.98
2019-05-05T19:28:25.507Z,3.35
2019-05-05T19:30:55.713Z,3.08
2019-05-05T19:33:25.760Z,3.00
2019-05-05T19:35:55.941Z,3.72
2019-05-05T19:38:25.788Z,3.72
2019-05-05T19:40:56.254Z,3.80
2019-05-05T19:43:26.520Z,3.60
2019-05-05T19:45:56.637Z,3.62
2019-05-05T19:48:28.140Z,3.40
2019-05-05T19:51:05.422Z,3.47
2019-05-05T19:53:35.532Z,4.25
2019-05-05T19:56:05.440Z,4.05
2019-05-05T19:58:36.605Z,3.35
2019-05-05T20:01:06.720Z,3.85
2019-05-05T20:03:36.796Z,3.62
2019-05-05T20:06:06.742Z,3.55
2019-05-05T20:08:41.616Z,3.83
2019-05-05T20:11:10.679Z,3.37
2019-05-05T20:13:40.309Z,3.90
2019-05-05T20:16:11.133Z,4.22
2019-05-05T20:18:40.835Z,4.20
2019-05-05T20:21:09.939Z,3.90
2019-05-05T20:23:38.516Z,3.92
2019-05-05T20:26:07.153Z,3.80
2019-05-05T20:28:35.785Z,3.08
2019-05-05T20:31:04.462Z,3.87
2019-05-05T20:33:34.727Z,3.45
2019-05-05T20:36:04.867Z,3.60
2019-05-05T20:38:34.959Z,3.67
2019-05-05T20:41:14.475Z,4.05
2019-05-05T20:43:44.832Z,3.45
2019-05-05T20:46:13.792Z,3.22
2019-05-05T20:48:44.642Z,3.12
2019-05-05T20:51:13.787Z,3.27
2019-05-05T20:53:45.165Z,3.08
2019-05-05T20:56:14.925Z,3.08
2019-05-05T20:58:43.996Z,3.12
2019-05-05T21:01:13.995Z,3.30
2019-05-05T21:03:42.657Z,3.60
2019-05-05T21:06:11.062Z,4.25
2019-05-05T21:08:39.473Z,3.72
2019-05-05T21:11:07.884Z,3.75
2019-05-05T21:13:36.288Z,4.00
2019-05-05T21:16:04.749Z,4.12
2019-05-05T21:18:34.745Z,4.37
2019-05-05T21:21:05.043Z,4.37
2019-05-05T21:23:35.174Z,4.20
2019-05-05T21:26:05.213Z,4.28
2019-05-05T21:28:33.808Z,4.20
2019-05-05T21:31:02.223Z,4.53
2019-05-05T21:33:30.653Z,3.92
2019-05-05T21:35:59.085Z,4.53
2019-05-05T21:38:27.469Z,4.90
2019-05-05T21:40:55.889Z,4.78
2019-05-05T21:43:24.306Z,4.45
2019-05-05T21:45:53.768Z,4.37
2019-05-05T21:48:24.236Z,3.75
2019-05-05T21:50:54.169Z,4.65
2019-05-05T21:53:27.024Z,4.40
2019-05-05T21:56:04.320Z,4.70
2019-05-05T21:58:34.636Z,4.33
2019-05-05T22:01:04.809Z,4.90
2019-05-05T22:03:34.887Z,4.35
2019-05-05T22:06:03.830Z,4.62
2019-05-05T22:08:33.623Z,4.70
2019-05-05T22:11:03.952Z,4.67
2019-05-05T22:13:36.147Z,5.53
2019-05-05T22:16:04.063Z,5.10
2019-05-05T22:18:33.681Z,4.83
2019-05-05T22:21:04.443Z,5.70
2019-05-05T22:23:34.014Z,5.12
2019-05-05T22:26:04.159Z,5.12
2019-05-05T22:28:34.070Z,4.78
2019-05-05T22:31:04.695Z,4.72
2019-05-05T22:33:34.023Z,4.65
2019-05-05T22:36:04.497Z,4.60
2019-05-05T22:38:34.027Z,5.05
2019-05-05T22:41:02.642Z,5.47
2019-05-05T22:43:31.336Z,5.37
2019-05-05T22:45:59.743Z,4.90
2019-05-05T22:48:28.153Z,4.67
2019-05-05T22:50:56.552Z,4.95
2019-05-05T22:53:24.984Z,4.50
2019-05-05T22:55:53.504Z,4.87
2019-05-05T22:58:23.885Z,4.62
2019-05-05T23:00:54.807Z,5.10
2019-05-05T23:03:24.801Z,5.58
2019-05-05T23:05:54.894Z,5.05
2019-05-05T23:08:24.302Z,5.40
2019-05-05T23:10:54.410Z,4.87
2019-05-05T23:13:23.088Z,5.10
2019-05-05T23:15:58.712Z,4.70
2019-05-05T23:18:28.528Z,5.35
2019-05-05T23:21:15.967Z,5.10
2019-05-05T23:24:00.998Z,4.78
2019-05-05T23:26:31.056Z,5.58
2019-05-05T23:28:59.481Z,5.33
2019-05-05T23:31:27.892Z,5.53
2019-05-05T23:33:56.396Z,5.30
2019-05-05T23:36:24.800Z,5.20
2019-05-05T23:38:54.945Z,5.25
2019-05-05T23:41:23.941Z,5.47
2019-05-05T23:43:54.418Z,4.97
2019-05-05T23:46:24.133Z,5.55
2019-05-05T23:48:53.678Z,5.40
2019-05-05T23:51:24.213Z,5.03
2019-05-05T23:53:54.836Z,5.65
2019-05-05T23:56:24.058Z,5.22
2019-05-05T23:58:55.539Z,5.15
